Terminal Aerodrome Forecast
Issued by NWS Sterling, VA

Current Version | Previous Version | Text Only | Print | Product List | Glossary Off
Versions: 1 2 3 4 5 6 7 8 9 10 11 12 13 14 15

000
FTUS41 KLWX 250524
TAFMRB
TAF
KMRB 250524Z 2506/2606 04008KT 5SM RA OVC008 WS020/11035KT
     FM251000 06005KT 3SM RA SCT003 OVC008
     FM251800 VRB03KT 5SM -SHRA SCT008 OVC015
     FM252200 23007KT 5SM -SHRA BKN020
     FM260100 26006KT P6SM BKN035
     FM260300 26005KT P6SM BKN025=

USA.gov is the U.S. government's official web portal to all federal, state and local government web resources and services.